Time;durP1;ratioP1;P1;durP2;ratioP2;P2;SDS_P1;SDS_P2;PMS_P1;PMS_P2;Temp;Humidity;BMP_temperature;BMP_pressure;BME280_temperature;BME280_humidity;BME280_pressure;Samples;Min_cycle;Max_cycle;Signal;HPM_P1;HPM_P2
2021/05/20 00:01:29;;;;;;;42.20;27.73;;;;;;;-142.75;70.46;78232.03;5089017;28;20564;-79
2021/05/20 00:04:25;;;;;;;45.43;29.00;;;;;;;-142.75;70.41;78247.78;5066442;28;20572;-80
2021/05/20 00:07:03;;;;;;;46.67;29.00;;;;;;;-142.75;70.70;78259.59;5083276;28;20032;-80
2021/05/20 00:12:34;;;;;;;47.23;31.27;;;;;;;-142.75;71.01;78259.59;5087281;28;20083;-80
2021/05/20 00:15:34;;;;;;;47.38;27.00;;;;;;;-142.75;70.95;78269.44;5069247;28;20097;-79
2021/05/20 00:18:18;;;;;;;42.07;26.73;;;;;;;-142.75;71.13;78275.34;5070725;28;20032;-80
2021/05/20 00:20:48;;;;;;;44.30;29.00;;;;;;;-142.75;70.95;78287.16;5070829;28;20051;-80
2021/05/20 00:23:42;;;;;;;55.27;31.63;;;;;;;-142.75;71.07;78297.00;5073242;28;20055;-80
2021/05/20 00:26:34;;;;;;;53.90;32.87;;;;;;;-142.75;71.15;78312.78;5072326;28;20036;-79
2021/05/20 00:29:05;;;;;;;53.57;32.63;;;;;;;-142.75;71.18;78314.75;5070931;28;20089;-80
2021/05/20 00:31:43;;;;;;;48.87;30.10;;;;;;;-142.75;71.12;78314.75;5072812;28;20023;-80
2021/05/20 00:34:56;;;;;;;45.03;29.07;;;;;;;-142.75;71.18;78320.66;5070691;28;20024;-80
2021/05/20 00:37:30;;;;;;;44.93;28.57;;;;;;;-142.75;71.02;78334.44;5069306;28;20040;-79
2021/05/20 00:40:11;;;;;;;45.50;26.87;;;;;;;-142.75;70.92;78340.34;5089330;28;20034;-80
2021/05/20 00:42:50;;;;;;;38.70;25.00;;;;;;;-142.75;71.06;78326.56;5076469;28;20020;-80
2021/05/20 00:45:55;;;;;;;36.77;25.20;;;;;;;-142.75;70.72;78348.22;5071425;28;20510;-79
2021/05/20 00:55:24;;;;;;;49.73;29.50;;;;;;;-142.75;71.06;78358.06;5088873;28;20020;-80
2021/05/20 00:58:21;;;;;;;47.30;28.73;;;;;;;-142.75;71.22;78360.03;5066372;28;20135;-80
2021/05/20 01:00:56;;;;;;;50.77;32.20;;;;;;;-142.75;71.22;78367.91;5066804;28;20441;-79
2021/05/20 01:03:41;;;;;;;52.43;33.47;;;;;;;-142.75;71.50;78354.13;5064717;28;20033;-80
2021/05/20 01:09:16;;;;;;;63.27;37.97;;;;;;;-142.75;71.81;78369.88;5077725;28;20032;-79
2021/05/20 01:12:00;;;;;;;56.90;35.33;;;;;;;-142.75;71.99;78360.03;5069861;28;20042;-80
2021/05/20 01:15:00;;;;;;;58.30;35.70;;;;;;;-142.75;72.24;78369.88;5073641;28;20384;-80
2021/05/20 01:20:49;;;;;;;;;;;;;;;-142.75;72.02;78375.78;5089983;28;20035;-79
2021/05/20 01:26:32;;;;;;;49.87;30.40;;;;;;;-142.75;71.90;78397.44;5053770;28;20019;-80
2021/05/20 01:29:20;;;;;;;51.37;32.50;;;;;;;-142.75;71.69;78415.19;5069653;28;20020;-80
2021/05/20 01:31:55;;;;;;;67.23;38.70;;;;;;;-142.75;71.73;78409.28;5068590;28;20477;-79
2021/05/20 01:34:37;;;;;;;66.03;37.37;;;;;;;-142.75;72.02;78395.47;5072169;28;20047;-80
2021/05/20 01:37:40;;;;;;;;;;;;;;;;;;;;;
2021/05/20 01:40:13;;;;;;;65.63;38.67;;;;;;;-142.75;72.40;78381.69;5083691;28;20028;-79
2021/05/20 01:43:13;;;;;;;55.97;34.87;;;;;;;-142.75;72.50;78379.72;5070040;28;20588;-79
2021/05/20 01:45:54;;;;;;;56.67;35.00;;;;;;;-142.75;72.58;78385.63;5060296;28;20565;-78
2021/05/20 01:48:59;;;;;;;;;;;;;;;;;;;;;
2021/05/20 01:51:31;;;;;;;47.17;28.30;;;;;;;-142.75;72.00;78425.03;5091250;28;20545;-79
2021/05/20 01:54:43;;;;;;;;;;;;;;;;;;;;;
2021/05/20 01:57:22;;;;;;;57.43;35.93;;;;;;;-142.75;72.03;78442.75;5076961;28;20047;-79
2021/05/20 02:00:19;;;;;;;;;;;;;;;;;;;;;
2021/05/20 02:03:05;;;;;;;43.80;29.03;;;;;;;-142.75;71.77;78456.53;5088048;28;20046;-78
2021/05/20 02:06:08;;;;;;;;;;;;;;;;;;;;;
2021/05/20 02:09:09;;;;;;;;;;;;;;;;;;;;;
2021/05/20 02:11:42;;;;;;;58.90;35.77;;;;;;;-142.75;71.91;78454.56;5083423;28;20028;-78
2021/05/20 02:14:27;;;;;;;57.70;35.43;;;;;;;-142.75;71.99;78450.63;5067434;28;20020;-78
2021/05/20 02:16:58;;;;;;;50.83;33.80;;;;;;;-142.75;71.79;78448.66;5064241;28;20112;-79
2021/05/20 02:19:32;;;;;;;48.57;32.40;;;;;;;-142.75;71.93;78444.72;5061336;28;20055;-78
2021/05/20 02:22:09;;;;;;;63.50;37.20;;;;;;;-142.75;71.98;78444.72;5065335;28;20028;-79
2021/05/20 02:24:57;;;;;;;62.33;38.40;;;;;;;-142.75;72.03;78446.69;5062810;28;20032;-79
2021/05/20 02:27:28;;;;;;;58.50;36.83;;;;;;;-142.75;72.11;78448.66;5064732;28;20451;-78
2021/05/20 02:30:06;;;;;;;56.57;35.80;;;;;;;-142.75;72.08;78446.69;5068846;28;20429;-78
2021/05/20 02:32:37;;;;;;;54.93;34.83;;;;;;;-142.75;72.00;78452.59;5066237;28;20512;-78
2021/05/20 02:35:13;;;;;;;61.13;37.17;;;;;;;-142.75;72.12;78456.53;5067045;28;20020;-77
2021/05/20 02:37:49;;;;;;;71.63;39.75;;;;;;;-142.75;71.99;78454.56;5065686;28;20043;-78
2021/05/20 02:40:45;;;;;;;67.00;39.75;;;;;;;-142.75;72.21;78452.59;5066201;28;20020;-79
2021/05/20 02:43:16;;;;;;;62.13;38.63;;;;;;;-142.75;72.41;78460.47;5042163;28;20052;-79
2021/05/20 02:45:46;;;;;;;64.23;40.37;;;;;;;-142.75;72.40;78464.41;5062733;28;20032;-79
2021/05/20 02:51:56;;;;;;;66.03;38.67;;;;;;;-142.75;72.68;78434.88;5085153;28;20124;-78
2021/05/20 02:54:41;;;;;;;;;;;;;;;;;;;;;
2021/05/20 02:57:08;;;;;;;70.63;40.10;;;;;;;-142.75;72.90;78430.94;5079498;28;20392;-79
2021/05/20 02:59:35;;;;;;;65.15;40.95;;;;;;;-142.75;73.28;78427.00;5085226;22;20036;-81
2021/05/20 03:02:04;;;;;;;74.30;43.27;;;;;;;-142.75;73.37;78423.06;5081903;28;20497;-81
2021/05/20 03:04:35;;;;;;;71.97;43.10;;;;;;;-142.75;73.37;78428.97;5069585;28;20016;-82
2021/05/20 03:07:01;;;;;;;72.23;41.10;;;;;;;-142.75;73.50;78421.09;5064111;28;20497;-81
2021/05/20 03:09:26;;;;;;;69.70;42.17;;;;;;;-142.75;73.71;78425.03;5064497;28;20044;-81
2021/05/20 03:11:53;;;;;;;68.00;41.90;;;;;;;-142.75;73.61;78421.09;5065803;28;20047;-81
2021/05/20 03:14:18;;;;;;;67.97;40.10;;;;;;;-142.75;73.82;78407.31;5064630;28;20485;-80
2021/05/20 03:16:44;;;;;;;70.03;39.47;;;;;;;-142.75;73.82;78405.34;5071989;28;20043;-81
2021/05/20 03:19:10;;;;;;;64.28;36.75;;;;;;;-142.75;73.80;78413.22;5083964;28;20083;-81
2021/05/20 03:21:35;;;;;;;61.90;37.58;;;;;;;-142.75;74.03;78425.03;5088262;28;20374;-80
2021/05/20 03:24:01;;;;;;;63.17;37.67;;;;;;;-142.75;73.78;78438.81;5061702;28;20032;-81
2021/05/20 03:26:26;;;;;;;68.15;39.40;;;;;;;-142.75;73.66;78448.66;5085278;28;20070;-82
2021/05/20 03:28:51;;;;;;;75.50;43.07;;;;;;;-142.75;73.78;78440.78;5084665;28;20032;-81
2021/05/20 03:31:16;;;;;;;76.70;43.42;;;;;;;-142.75;73.96;78432.91;5086693;28;20451;-80
2021/05/20 03:33:43;;;;;;;71.57;41.83;;;;;;;-142.75;73.74;78432.91;5065551;28;20397;-80
2021/05/20 03:36:09;;;;;;;71.33;42.17;;;;;;;-142.75;73.74;78440.78;5085117;28;20390;-81
2021/05/20 03:38:34;;;;;;;84.20;45.08;;;;;;;-142.75;73.65;78436.84;5061339;28;20031;-81
2021/05/20 03:41:02;;;;;;;86.85;43.85;;;;;;;-142.75;73.89;78430.94;5084677;28;20012;-80
2021/05/20 03:43:32;;;;;;;78.83;45.07;;;;;;;-142.75;73.86;78417.16;5068937;28;20101;-81
2021/05/20 03:45:57;;;;;;;78.13;44.87;;;;;;;-142.75;73.96;78403.38;5062824;28;20173;-81
2021/05/20 03:48:23;;;;;;;68.30;43.47;;;;;;;-142.75;74.22;78409.28;5066621;28;20528;-81
2021/05/20 03:50:48;;;;;;;73.05;43.58;;;;;;;-142.75;74.10;78419.13;5071308;28;20085;-80
2021/05/20 03:53:13;;;;;;;66.82;41.70;;;;;;;-142.75;74.28;78427.00;5081244;28;20024;-82
2021/05/20 03:55:39;;;;;;;77.30;41.53;;;;;;;-142.75;74.28;78421.09;5082901;28;20397;-81
2021/05/20 03:58:04;;;;;;;63.05;38.15;;;;;;;-142.75;74.24;78417.16;5081979;28;20048;-82
2021/05/20 04:00:29;;;;;;;68.82;39.00;;;;;;;-142.75;74.17;78415.19;5069709;28;20032;-81
2021/05/20 04:02:54;;;;;;;64.47;38.38;;;;;;;-142.75;74.17;78417.16;5084522;28;20112;-80
2021/05/20 04:05:20;;;;;;;62.43;37.37;;;;;;;-142.75;74.08;78421.09;5059511;28;20023;-78
2021/05/20 04:07:45;;;;;;;58.80;35.92;;;;;;;-142.75;74.10;78425.03;5083687;28;20097;-80
2021/05/20 04:10:11;;;;;;;55.90;33.80;;;;;;;-142.75;74.25;78413.22;5060684;28;20032;-77
2021/05/20 04:12:36;;;;;;;59.15;36.38;;;;;;;-142.75;74.17;78405.34;5085324;28;20747;-77
2021/05/20 04:15:03;;;;;;;66.40;38.97;;;;;;;-142.75;74.04;78397.44;5065155;28;20042;-78
2021/05/20 04:17:28;;;;;;;66.07;38.97;;;;;;;-142.75;73.94;78393.50;5085794;28;20051;-78
2021/05/20 04:19:53;;;;;;;65.22;37.90;;;;;;;-142.75;73.99;78397.44;5079784;28;20482;-78
2021/05/20 04:22:19;;;;;;;67.20;40.17;;;;;;;-142.75;73.75;78391.53;5080008;28;20039;-78
2021/05/20 04:24:44;;;;;;;66.70;37.58;;;;;;;-142.75;73.92;78389.56;5057797;28;20659;-79
2021/05/20 04:27:09;;;;;;;69.50;39.00;;;;;;;-142.75;73.91;78385.63;5063616;28;20024;-77
2021/05/20 04:29:35;;;;;;;79.40;42.70;;;;;;;-142.75;73.76;78375.78;5075638;28;20025;-79
2021/05/20 04:32:00;;;;;;;78.28;39.75;;;;;;;-142.75;74.12;78354.13;5080106;28;20028;-78
2021/05/20 04:34:25;;;;;;;78.13;39.10;;;;;;;-142.75;74.34;78326.56;5086543;28;20497;-80
2021/05/20 04:36:50;;;;;;;81.47;40.63;;;;;;;-142.75;74.45;78318.69;5062270;28;20278;-78
2021/05/20 04:39:16;;;;;;;102.97;41.80;;;;;;;-142.75;74.37;78306.88;5074955;28;20016;-78
2021/05/20 04:41:42;;;;;;;75.13;39.97;;;;;;;-142.75;74.13;78291.09;5079882;28;20974;-80
2021/05/20 04:44:08;;;;;;;79.03;39.40;;;;;;;-142.75;74.17;78275.34;5072967;28;20344;-77
2021/05/20 04:46:33;;;;;;;85.45;39.42;;;;;;;-142.75;74.23;78261.56;5077738;28;20056;-79
2021/05/20 04:48:58;;;;;;;83.03;40.67;;;;;;;-142.75;74.11;78255.66;5059022;28;20024;-78
2021/05/20 04:51:23;;;;;;;79.28;38.85;;;;;;;-142.75;74.23;78253.69;5089023;28;20028;-78
2021/05/20 04:53:50;;;;;;;132.02;42.40;;;;;;;-142.75;73.98;78247.78;5080947;28;20532;-78
2021/05/20 04:56:22;;;;;;;85.70;38.70;;;;;;;-142.75;73.72;78216.28;5076041;28;20098;-77
2021/05/20 04:58:48;;;;;;;147.03;35.67;;;;;;;-142.75;73.42;78228.09;5063596;28;20484;-77
2021/05/20 05:01:13;;;;;;;149.07;38.25;;;;;;;-142.75;73.31;78218.25;5063563;28;20032;-79
2021/05/20 05:03:39;;;;;;;95.35;38.97;;;;;;;-142.75;73.06;78196.59;5083200;28;20024;-81
2021/05/20 05:06:04;;;;;;;93.72;39.38;;;;;;;-142.75;72.90;78184.78;5076635;28;20028;-78
2021/05/20 05:08:29;;;;;;;89.40;39.40;;;;;;;-142.75;72.73;78172.94;5079428;28;20028;-78
2021/05/20 05:10:55;;;;;;;147.90;41.55;;;;;;;-142.75;72.35;78172.94;5064490;28;20537;-78
2021/05/20 05:13:20;;;;;;;99.10;42.50;;;;;;;-142.75;72.33;78163.09;5086893;28;20102;-78
2021/05/20 05:15:45;;;;;;;107.93;42.93;;;;;;;-142.75;72.18;78157.19;5092270;28;20353;-78
2021/05/20 05:18:10;;;;;;;87.90;41.08;;;;;;;-142.75;72.38;78143.41;5069062;28;20101;-77
2021/05/20 05:20:36;;;;;;;105.05;41.40;;;;;;;-142.75;72.19;78125.69;5088170;28;20026;-80
2021/05/20 05:23:03;;;;;;;104.55;41.47;;;;;;;-142.75;72.24;78113.88;5080842;28;20230;-79
2021/05/20 05:25:29;;;;;;;86.22;42.78;;;;;;;-142.75;72.07;78109.94;5067111;28;20107;-77
2021/05/20 05:27:54;;;;;;;93.53;41.67;;;;;;;-142.75;71.78;78102.06;5067361;28;20111;-78
2021/05/20 05:30:20;;;;;;;95.10;39.10;;;;;;;-142.75;71.44;78107.97;5080287;28;20266;-78
2021/05/20 05:32:45;;;;;;;125.75;40.13;;;;;;;-142.75;71.23;78094.19;5083219;28;20270;-78
2021/05/20 05:35:11;;;;;;;101.53;41.42;;;;;;;-142.75;71.07;78098.13;5067741;28;20107;-79
2021/05/20 05:37:36;;;;;;;100.18;44.30;;;;;;;-142.75;71.22;78082.38;5083469;28;20028;-78
2021/05/20 05:40:02;;;;;;;93.30;42.05;;;;;;;-142.75;71.38;78064.66;5060123;28;20028;-80
2021/05/20 05:42:27;;;;;;;87.60;43.53;;;;;;;-142.75;71.12;78058.72;5059075;28;20026;-78
2021/05/20 05:44:52;;;;;;;92.87;43.17;;;;;;;-142.75;70.76;78037.06;5086416;28;20036;-77
2021/05/20 05:47:17;;;;;;;97.07;46.03;;;;;;;-142.75;70.77;78021.31;5073895;28;20277;-78
2021/05/20 05:49:47;;;;;;;86.63;45.92;;;;;;;-142.75;70.36;78011.47;5092602;28;20396;-77
2021/05/20 05:52:19;;;;;;;91.65;47.30;;;;;;;-142.75;70.35;77979.97;5074221;28;20032;-78
2021/05/20 05:54:44;;;;;;;90.20;46.38;;;;;;;-142.75;69.92;77954.38;5078482;28;20020;-77
2021/05/20 05:57:09;;;;;;;87.60;47.70;;;;;;;-142.75;69.85;77950.44;5072515;28;20149;-77
2021/05/20 05:59:35;;;;;;;82.47;47.03;;;;;;;-142.75;69.01;77938.63;5081739;28;20070;-79
2021/05/20 06:02:00;;;;;;;81.67;49.10;;;;;;;-142.75;68.60;77924.84;5055083;28;20512;-78
2021/05/20 06:04:28;;;;;;;75.43;46.33;;;;;;;-142.75;68.64;77916.97;5072694;28;20294;-78
2021/05/20 06:06:53;;;;;;;83.35;48.90;;;;;;;-142.75;68.49;77903.16;5072321;28;20166;-79
2021/05/20 06:09:19;;;;;;;75.55;46.53;;;;;;;-142.75;68.21;77893.31;5072475;28;20060;-78
2021/05/20 06:11:44;;;;;;;73.82;45.63;;;;;;;-142.75;68.02;77869.69;5076303;28;20031;-78
2021/05/20 06:14:10;;;;;;;77.72;47.22;;;;;;;-142.75;67.33;77863.78;5073957;28;20026;-78
2021/05/20 06:16:40;;;;;;;77.72;46.45;;;;;;;-142.75;66.84;77848.03;5074187;28;20043;-80
2021/05/20 06:19:06;;;;;;;69.72;43.15;;;;;;;-142.75;66.04;77812.59;5092940;28;20703;-77
2021/05/20 06:21:32;;;;;;;67.10;43.75;;;;;;;-142.75;65.77;77806.69;5092535;28;20401;-77
2021/05/20 06:23:57;;;;;;;71.15;43.92;;;;;;;-142.75;65.85;77806.69;5092569;28;20024;-77
2021/05/20 06:26:24;;;;;;;72.88;43.58;;;;;;;-142.75;65.72;77781.09;5080292;28;20078;-77
2021/05/20 06:28:49;;;;;;;70.25;45.85;;;;;;;-142.75;65.37;77690.50;5080161;28;20028;-78
2021/05/20 06:31:15;;;;;;;64.80;40.58;;;;;;;-142.75;62.30;77596.00;5084270;28;20103;-77
2021/05/20 06:33:40;;;;;;;60.05;40.22;;;;;;;-142.75;61.17;77468.03;5081384;28;20542;-76
2021/05/20 06:36:06;;;;;;;56.85;37.80;;;;;;;-142.75;58.90;77393.19;5065643;28;20496;-78
2021/05/20 06:38:31;;;;;;;;;;;;;;;-142.75;57.90;77371.53;5077339;28;20024;-77
2021/05/20 06:40:56;;;;;;;54.28;36.78;;;;;;;-142.75;57.05;77275.06;5064283;28;19918;-77
2021/05/20 06:43:22;;;;;;;;;;;;;;;-142.75;55.51;77332.16;5079296;28;20036;-78
2021/05/20 06:45:47;;;;;;;49.22;34.47;;;;;;;-142.75;56.71;77271.13;5080153;28;19924;-76
2021/05/20 06:48:16;;;;;;;;;;;;;;;-142.75;54.41;77200.25;5082102;28;20035;-78
2021/05/20 06:50:42;;;;;;;45.75;31.38;;;;;;;-142.75;53.26;77180.56;5082510;28;19912;-77
2021/05/20 06:53:07;;;;;;;45.33;31.88;;;;;;;-142.75;53.01;77184.50;5060423;28;20032;-76
2021/05/20 06:55:33;;;;;;;;;;;;;;;-142.75;52.30;77030.94;5090216;28;20016;-79
2021/05/20 07:00:33;;;;;;;38.13;29.70;;;;;;;-142.75;51.55;76995.50;5082695;28;20139;-78
2021/05/20 07:02:58;;;;;;;37.78;28.08;;;;;;;-142.75;49.33;76995.50;5063238;28;20111;-78
2021/05/20 07:05:24;;;;;;;37.05;28.52;;;;;;;-142.75;50.81;76985.66;5078708;28;20445;-78
2021/05/20 07:07:50;;;;;;;33.08;24.95;;;;;;;-142.75;49.32;76924.63;5075803;28;20100;-79
2021/05/20 07:10:15;;;;;;;;;;;;;;;-142.75;49.22;76847.84;5079781;28;20029;-78
2021/05/20 07:12:41;;;;;;;30.10;24.23;;;;;;;-142.75;48.47;76820.28;5060180;28;19912;-79
2021/05/20 07:15:07;;;;;;;32.65;23.95;;;;;;;-142.75;46.06;76714.00;5076858;28;20020;-79
2021/05/20 07:17:32;;;;;;;27.30;21.33;;;;;;;-142.75;44.78;76676.59;5088164;28;20054;-78
2021/05/20 07:19:58;;;;;;;26.55;19.40;;;;;;;-142.75;44.10;76578.16;5078881;28;20021;-79
2021/05/20 07:22:23;;;;;;;21.98;18.58;;;;;;;-142.75;42.25;76495.50;5076987;28;20030;-78
2021/05/20 07:24:49;;;;;;;25.50;20.13;;;;;;;-142.75;42.27;76507.31;5064018;28;20024;-77
2021/05/20 07:27:14;;;;;;;24.60;19.15;;;;;;;-142.75;42.09;76609.66;5054388;28;20443;-76
2021/05/20 07:29:40;;;;;;;23.55;19.58;;;;;;;-142.75;43.67;76570.28;5062669;28;20073;-76
2021/05/20 07:32:07;;;;;;;22.58;18.27;;;;;;;-142.75;42.52;76467.94;5090986;28;20024;-78
2021/05/20 07:34:35;;;;;;;19.15;15.88;;;;;;;-142.75;41.13;76389.19;5091208;28;20157;-76
2021/05/20 07:37:01;;;;;;;18.27;14.75;;;;;;;-142.75;39.74;76377.38;5084546;28;20063;-77
2021/05/20 07:39:26;;;;;;;17.42;13.45;;;;;;;-142.75;42.07;76562.41;5070934;28;20056;-77
2021/05/20 07:41:51;;;;;;;21.42;14.32;;;;;;;-142.75;41.84;76507.31;5084445;28;20031;-75
2021/05/20 07:44:17;;;;;;;17.95;13.18;;;;;;;-142.75;39.17;76399.03;5052853;28;20025;-75
2021/05/20 07:46:42;;;;;;;17.10;13.07;;;;;;;-142.75;40.64;76326.22;5072287;28;20473;-76
2021/05/20 07:49:07;;;;;;;20.17;12.85;;;;;;;-142.75;39.32;76310.47;5088695;28;20020;-76
2021/05/20 07:51:33;;;;;;;15.85;11.30;;;;;;;-142.75;39.45;76375.41;5070744;28;20020;-76
2021/05/20 07:53:58;;;;;;;13.63;9.80;;;;;;;-142.75;38.12;76296.69;5070665;28;20099;-76
2021/05/20 07:56:24;;;;;;;15.93;11.32;;;;;;;-142.75;38.65;76282.91;5055183;28;20033;-77
2021/05/20 07:58:53;;;;;;;13.77;11.20;;;;;;;-142.75;40.55;76471.88;5070603;28;20021;-77
2021/05/20 08:01:18;;;;;;;14.30;11.30;;;;;;;-142.75;38.50;76491.56;5085218;28;20043;-76
2021/05/20 08:03:53;;;;;;;13.77;11.07;;;;;;;-142.75;39.38;76326.22;5063592;28;20043;-75
2021/05/20 08:06:25;;;;;;;12.98;10.13;;;;;;;-142.75;38.40;76251.41;5071527;28;20035;-74
2021/05/20 08:08:58;;;;;;;14.85;11.40;;;;;;;-142.75;36.67;76172.69;5073399;28;20052;-74
2021/05/20 08:11:23;;;;;;;17.52;12.93;;;;;;;-142.75;38.30;76393.13;5062388;28;20062;-75
2021/05/20 08:13:49;;;;;;;14.30;11.50;;;;;;;-142.75;36.93;76263.22;5085645;28;20060;-75
2021/05/20 08:16:14;;;;;;;14.32;11.75;;;;;;;-142.75;36.98;76271.09;5061057;28;20017;-74
2021/05/20 08:18:40;;;;;;;11.48;9.95;;;;;;;-142.75;37.30;76208.09;5078887;28;20062;-75
2021/05/20 08:21:06;;;;;;;12.90;9.77;;;;;;;-142.75;36.81;76227.78;5060322;28;20028;-74
2021/05/20 08:23:33;;;;;;;13.93;10.70;;;;;;;-142.75;38.59;76383.28;5078550;28;20035;-74
2021/05/20 08:25:59;;;;;;;14.07;10.68;;;;;;;-142.75;37.75;76215.97;5081383;28;20464;-75
2021/05/20 08:28:25;;;;;;;13.02;11.38;;;;;;;-142.75;37.11;76168.75;5078882;28;20093;-75
2021/05/20 08:30:50;;;;;;;11.85;9.73;;;;;;;-142.75;35.60;76162.84;5083236;28;20020;-74
2021/05/20 08:33:16;;;;;;;13.75;9.55;;;;;;;-142.75;35.09;76310.47;5070171;28;20031;-75
2021/05/20 08:35:41;;;;;;;13.43;11.52;;;;;;;-142.75;36.00;76381.31;5081739;28;20052;-75
2021/05/20 08:38:07;;;;;;;15.60;12.48;;;;;;;-142.75;37.73;76554.53;5069341;28;20051;-74
2021/05/20 08:40:33;;;;;;;15.73;12.90;;;;;;;-142.75;39.11;76497.47;5080307;28;20405;-74
2021/05/20 08:42:58;;;;;;;16.50;12.48;;;;;;;-142.75;37.99;76261.25;5085837;28;20073;-74
2021/05/20 08:45:27;;;;;;;15.60;12.35;;;;;;;-142.75;37.48;76229.75;5090187;28;20107;-76
2021/05/20 08:47:54;;;;;;;17.88;13.98;;;;;;;-142.75;36.36;76168.75;5067515;28;20039;-73
2021/05/20 08:50:22;;;;;;;17.70;13.57;;;;;;;-142.75;36.42;76060.50;5075872;28;20487;-73
2021/05/20 08:52:48;;;;;;;17.70;12.73;;;;;;;-142.75;35.30;76184.50;5089907;28;20397;-73
2021/05/20 08:55:17;;;;;;;13.77;10.93;;;;;;;-142.75;35.38;76082.13;5061415;28;20028;-74
2021/05/20 08:57:42;;;;;;;12.35;10.20;;;;;;;-142.75;35.10;76078.19;5075042;28;20750;-74
2021/05/20 09:00:13;;;;;;;15.23;12.65;;;;;;;-142.75;35.10;76097.88;5037540;22;20046;-75
2021/05/20 09:02:39;;;;;;;18.42;13.63;;;;;;;-142.75;35.64;76042.78;4977364;28;20414;-74
2021/05/20 09:05:12;;;;;;;14.02;10.77;;;;;;;-142.75;34.92;76030.97;4999654;28;20026;-75
2021/05/20 09:07:40;;;;;;;18.25;12.65;;;;;;;-142.75;33.81;75999.47;4990713;28;20030;-73
2021/05/20 09:10:18;;;;;;;16.95;13.45;;;;;;;-142.75;33.68;76052.63;4976037;28;20018;-74
2021/05/20 09:12:44;;;;;;;17.25;13.02;;;;;;;-142.75;34.03;75916.81;4989850;28;20053;-74
2021/05/20 09:15:19;;;;;;;15.77;12.57;;;;;;;-142.75;33.17;75906.97;4990822;28;20411;-73
2021/05/20 09:17:46;;;;;;;13.68;11.07;;;;;;;-142.75;34.20;75863.66;4990829;28;20107;-73
2021/05/20 09:20:12;;;;;;;12.63;9.98;;;;;;;-142.75;33.56;75875.47;4990766;28;20547;-73
2021/05/20 09:22:38;;;;;;;14.55;11.85;;;;;;;-142.75;32.98;76011.28;4973450;28;20030;-76
2021/05/20 09:25:06;;;;;;;15.85;11.95;;;;;;;-142.75;35.74;76204.16;4971854;28;20122;-76
2021/05/20 09:27:35;;;;;;;14.32;11.23;;;;;;;-142.75;33.66;76145.13;4971100;28;20042;-76
2021/05/20 09:30:11;;;;;;;15.52;10.43;;;;;;;-142.75;34.55;75969.94;4989514;28;20026;-77
2021/05/20 09:32:37;;;;;;;;;;;;;;;-142.75;33.49;75867.59;4991011;28;20038;-76
2021/05/20 09:35:05;;;;;;;14.90;11.75;;;;;;;-142.75;34.34;76227.78;4990833;28;19914;-76
2021/05/20 09:37:33;;;;;;;12.15;9.35;;;;;;;-142.75;33.44;76036.88;4984612;28;20489;-77
2021/05/20 09:40:04;;;;;;;11.30;8.85;;;;;;;-142.75;32.95;75991.59;4954062;28;20030;-76
2021/05/20 09:42:30;;;;;;;11.43;8.05;;;;;;;-142.75;33.39;75853.84;4980791;28;20564;-76
2021/05/20 09:45:05;;;;;;;14.02;8.35;;;;;;;-142.75;32.80;75844.00;4987946;28;20177;-76
2021/05/20 09:47:31;;;;;;;13.65;7.60;;;;;;;-142.75;31.65;75779.03;4957447;28;20030;-77
2021/05/20 09:50:03;;;;;;;11.07;7.70;;;;;;;-142.75;33.49;75948.31;4983367;28;20042;-76
2021/05/20 09:52:28;;;;;;;15.40;8.75;;;;;;;-142.75;32.21;75895.16;4971249;28;20022;-77
2021/05/20 09:54:54;;;;;;;11.32;9.30;;;;;;;-142.75;32.37;75952.25;4985771;28;20463;-76
2021/05/20 09:57:25;;;;;;;14.30;10.82;;;;;;;-142.75;34.88;76184.50;4954980;28;20031;-75
2021/05/20 10:00:09;;;;;;;15.52;11.13;;;;;;;-142.75;34.06;76070.34;4976074;28;20055;-77
2021/05/20 10:02:34;;;;;;;14.77;10.77;;;;;;;-142.75;34.96;75999.47;4985151;28;20022;-75
2021/05/20 10:05:20;;;;;;;15.15;10.27;;;;;;;-142.75;33.43;76050.66;4980895;28;20034;-75
2021/05/20 10:07:45;;;;;;;14.45;9.98;;;;;;;-142.75;33.19;76156.94;4990164;28;20026;-75
2021/05/20 10:10:11;;;;;;;12.48;8.60;;;;;;;-142.75;33.84;76086.06;4990151;28;20029;-76
2021/05/20 10:12:39;;;;;;;12.25;9.45;;;;;;;-142.75;33.64;76066.41;4972870;28;20026;-75
2021/05/20 10:15:07;;;;;;;13.13;9.98;;;;;;;-142.75;34.85;76125.44;4990030;28;20025;-76
2021/05/20 10:17:34;;;;;;;15.90;11.73;;;;;;;-142.75;35.09;76196.31;4989826;28;20427;-76
2021/05/20 10:20:01;;;;;;;13.45;10.60;;;;;;;-142.75;34.72;76133.31;4989864;28;20026;-75
2021/05/20 10:22:26;;;;;;;17.13;11.48;;;;;;;-142.75;37.38;76194.34;4990110;28;20093;-76
2021/05/20 10:24:52;;;;;;;14.98;10.75;;;;;;;-142.75;37.02;76212.03;4972283;28;20026;-76
2021/05/20 10:27:17;;;;;;;15.02;11.05;;;;;;;-142.75;37.21;76243.53;4972226;28;20029;-75
2021/05/20 10:29:43;;;;;;;10.48;8.50;;;;;;;-142.75;37.29;76296.69;4989662;28;20102;-76
2021/05/20 10:32:09;;;;;;;10.80;7.85;;;;;;;-142.75;37.24;76420.69;4989831;28;20041;-76
2021/05/20 10:34:36;;;;;;;10.98;6.70;;;;;;;-142.75;37.76;76359.66;4972421;28;20023;-74
2021/05/20 10:37:06;;;;;;;8.88;6.65;;;;;;;-142.75;37.66;76595.88;4989389;28;20030;-77
2021/05/20 10:39:31;;;;;;;8.07;5.93;;;;;;;-142.75;39.19;76432.50;4972259;28;20018;-76
2021/05/20 10:41:57;;;;;;;5.78;3.35;;;;;;;-142.75;37.25;76473.84;4989630;28;20065;-76
2021/05/20 10:44:23;;;;;;;6.20;3.45;;;;;;;-142.75;38.19;76387.22;4970111;28;20046;-75
2021/05/20 10:46:57;;;;;;;5.50;2.95;;;;;;;-142.75;37.11;76361.63;4952673;28;20026;-77
2021/05/20 10:49:54;;;;;;;4.43;3.17;;;;;;;-142.75;36.95;76306.53;4970066;28;20109;-76
2021/05/20 10:52:51;;;;;;;4.95;2.40;;;;;;;-142.75;34.93;76373.44;4983394;28;20109;-76
2021/05/20 10:55:16;;;;;;;;;;;;;;;-142.75;36.38;76322.28;4967103;28;20133;-75
2021/05/20 10:57:56;;;;;;;3.53;2.60;;;;;;;-142.75;35.17;76454.16;4988236;28;20013;-76
2021/05/20 11:00:30;;;;;;;5.18;3.42;;;;;;;-142.75;36.25;76442.34;4987381;28;20022;-74
2021/05/20 11:02:58;;;;;;;8.73;3.70;;;;;;;-142.75;37.46;76418.72;4969197;28;20057;-76
2021/05/20 11:05:42;;;;;;;6.35;3.60;;;;;;;-142.75;36.80;76475.81;4952325;28;20027;-75
2021/05/20 11:08:50;;;;;;;6.65;3.67;;;;;;;-142.75;38.18;76467.94;4988624;28;20069;-76
2021/05/20 11:11:31;;;;;;;7.10;3.13;;;;;;;-142.75;37.86;76479.75;4961521;28;20057;-75
2021/05/20 11:13:58;;;;;;;5.22;3.22;;;;;;;-142.75;37.50;76613.59;4987317;28;20064;-76
2021/05/20 11:16:31;;;;;;;5.65;3.72;;;;;;;-142.75;39.00;76580.13;4969844;28;20037;-76
2021/05/20 11:19:15;;;;;;;6.18;3.72;;;;;;;-142.75;38.07;76660.84;4978290;28;20037;-78
2021/05/20 11:21:59;;;;;;;6.57;3.83;;;;;;;-142.75;38.83;76586.03;4973412;28;20093;-75
2021/05/20 11:24:33;;;;;;;7.22;3.83;;;;;;;-142.75;38.14;76566.34;4952279;28;20080;-76
2021/05/20 11:27:00;;;;;;;7.20;4.45;;;;;;;-142.75;39.58;76554.53;4987105;28;20414;-76
2021/05/20 11:29:27;;;;;;;9.15;4.97;;;;;;;-142.75;38.79;76582.09;4985297;28;20026;-75
2021/05/20 11:31:58;;;;;;;12.07;5.00;;;;;;;-142.75;39.10;76542.72;4963936;28;20484;-75
2021/05/20 11:34:36;;;;;;;8.73;4.95;;;;;;;-142.75;37.64;76527.00;4988749;28;20387;-75
2021/05/20 11:37:02;;;;;;;8.30;4.50;;;;;;;-142.75;38.95;76467.94;4975042;28;20031;-76
2021/05/20 11:39:27;;;;;;;7.32;5.28;;;;;;;-142.75;38.96;76495.50;4962063;28;20022;-76
2021/05/20 11:41:53;;;;;;;10.50;5.70;;;;;;;-142.75;38.75;76548.63;4968856;28;20050;-77
2021/05/20 11:44:23;;;;;;;;;;;;;;;-142.75;39.59;76546.66;4986505;28;20088;-76
2021/05/20 11:47:09;;;;;;;10.57;5.95;;;;;;;-142.75;38.19;76495.50;4982415;28;20012;-75
2021/05/20 11:49:36;;;;;;;13.27;5.60;;;;;;;-142.75;40.06;76444.31;4979489;28;20029;-76
2021/05/20 11:52:11;;;;;;;9.85;6.28;;;;;;;-142.75;38.16;76499.44;4974634;28;20113;-76
2021/05/20 11:54:45;;;;;;;10.82;6.43;;;;;;;-142.75;39.00;76503.38;4986699;28;20022;-76
2021/05/20 11:57:10;;;;;;;9.60;6.53;;;;;;;-142.75;38.91;76493.53;4970237;28;20030;-74